Time;durP1;ratioP1;P1;durP2;ratioP2;P2;SDS_P1;SDS_P2;PMS_P1;PMS_P2;Temp;Humidity;BMP_temperature;BMP_pressure;BME280_temperature;BME280_humidity;BME280_pressure;Samples;Min_cycle;Max_cycle;Signal;HPM_P1;HPM_P2
2023/06/01 00:00:14;;;;;;;0.40;0.40;;;22.10;49.80;;;22.71;34.63;95186.00;5014850;28;20308;-50
2023/06/01 00:02:43;;;;;;;0.40;0.40;;;22.10;49.80;;;22.68;34.38;95183.84;5015138;28;20195;-50
2023/06/01 00:05:10;;;;;;;0.32;0.32;;;22.10;49.80;;;22.67;34.52;95188.38;5015026;28;20206;-47
2023/06/01 00:07:37;;;;;;;0.40;0.40;;;22.10;49.80;;;22.63;34.72;95179.28;5015359;28;20194;-47
2023/06/01 00:10:05;;;;;;;0.30;0.30;;;22.00;49.80;;;22.62;34.54;95182.22;5015032;28;20195;-47
2023/06/01 00:12:33;;;;;;;0.50;0.50;;;22.00;49.80;;;22.60;34.62;95189.69;5014698;28;20571;-47
2023/06/01 00:15:00;;;;;;;0.40;0.40;;;22.00;49.80;;;22.57;34.63;95193.69;5014631;28;20189;-48
2023/06/01 00:17:28;;;;;;;0.40;0.40;;;22.00;49.90;;;22.55;34.45;95187.81;5014500;28;20586;-46
2023/06/01 00:19:56;;;;;;;0.50;0.50;;;22.00;49.80;;;22.53;34.58;95190.75;5015096;28;20198;-48
2023/06/01 00:22:28;;;;;;;0.40;0.40;;;22.00;49.90;;;22.51;34.79;95187.53;5014590;28;20195;-46
2023/06/01 00:24:55;;;;;;;0.38;0.38;;;21.90;49.80;;;22.50;34.76;95182.44;5014519;28;20520;-45
2023/06/01 00:27:22;;;;;;;0.30;0.30;;;21.90;49.80;;;22.47;34.68;95189.13;5014293;28;20206;-45
2023/06/01 00:29:49;;;;;;;0.40;0.40;;;21.90;49.90;;;22.46;34.51;95187.50;5014326;28;20191;-45
2023/06/01 00:32:17;;;;;;;0.40;0.40;;;21.90;50.00;;;22.44;34.42;95175.47;5014703;28;20220;-47
2023/06/01 00:34:44;;;;;;;0.43;0.43;;;21.90;50.10;;;22.42;34.82;95183.72;5014640;28;20205;-46
2023/06/01 00:37:11;;;;;;;0.40;0.40;;;21.80;50.00;;;22.43;34.88;95179.19;5013217;28;20641;-46
2023/06/01 00:39:38;;;;;;;0.40;0.40;;;21.80;50.10;;;22.40;34.70;95177.84;5013329;28;20297;-47
2023/06/01 00:42:06;;;;;;;0.40;0.40;;;21.80;50.10;;;22.36;34.75;95179.38;5013614;28;20280;-46
2023/06/01 00:44:33;;;;;;;0.38;0.38;;;21.80;50.20;;;22.35;34.96;95172.44;5014766;28;20199;-46
2023/06/01 00:47:00;;;;;;;0.40;0.40;;;21.80;50.30;;;22.33;35.08;95169.25;5013457;28;20205;-48
2023/06/01 00:49:27;;;;;;;0.50;0.50;;;21.80;50.30;;;22.31;34.74;95161.47;5014123;28;20633;-46
2023/06/01 00:51:55;;;;;;;0.40;0.40;;;21.80;50.30;;;22.30;34.81;95165.22;5014339;28;20629;-47
2023/06/01 00:54:22;;;;;;;0.38;0.38;;;21.80;50.30;;;22.27;34.61;95159.59;5013107;28;20302;-46
2023/06/01 00:56:49;;;;;;;0.30;0.30;;;21.70;50.20;;;22.23;35.08;95162.75;5012864;28;20270;-47
2023/06/01 00:59:16;;;;;;;0.40;0.40;;;21.70;50.20;;;22.22;34.77;95158.47;4996913;28;20212;-46
2023/06/01 01:01:44;;;;;;;0.40;0.40;;;21.70;50.20;;;22.20;35.04;95160.63;5012903;28;20229;-46
2023/06/01 01:04:13;;;;;;;0.38;0.38;;;21.70;50.30;;;22.17;35.26;95157.66;5013113;28;20504;-47
2023/06/01 01:07:00;;;;;;;0.40;0.40;;;21.70;50.40;;;22.14;35.57;95152.84;5012758;28;20292;-48
2023/06/01 01:09:42;;;;;;;0.50;0.50;;;21.60;50.40;;;22.12;34.90;95157.63;5012914;28;20200;-46
2023/06/01 01:12:23;;;;;;;0.47;0.47;;;21.60;50.30;;;22.09;35.01;95153.59;4996683;28;20204;-46
2023/06/01 01:15:27;;;;;;;0.43;0.43;;;21.60;50.50;;;22.04;35.06;95154.38;5014005;28;20215;-47
2023/06/01 01:18:13;;;;;;;0.50;0.50;;;21.50;50.30;;;22.02;34.81;95159.19;4997398;28;20216;-46
2023/06/01 01:20:57;;;;;;;0.47;0.47;;;21.50;50.40;;;22.00;35.34;95147.94;5012643;28;20227;-45
2023/06/01 01:23:38;;;;;;;0.40;0.40;;;21.50;50.50;;;21.97;35.52;95151.16;5013775;28;20261;-46
2023/06/01 01:26:57;;;;;;;0.43;0.43;;;21.50;50.50;;;21.94;35.40;95153.53;5012499;28;20219;-47
2023/06/01 01:29:29;;;;;;;0.40;0.40;;;21.50;50.50;;;21.91;35.27;95150.31;5022625;28;20209;-49
2023/06/01 01:31:59;;;;;;;0.40;0.40;;;21.50;50.60;;;21.90;35.46;95146.03;4996348;28;20236;-46
2023/06/01 01:34:28;;;;;;;0.40;0.40;;;21.40;50.50;;;21.89;35.42;95144.41;5012503;28;20546;-46
2023/06/01 01:36:55;;;;;;;0.32;0.32;;;21.40;50.50;;;21.88;35.63;95150.81;5012354;28;20201;-48
2023/06/01 01:39:22;;;;;;;0.40;0.40;;;21.40;50.50;;;21.86;35.45;95150.28;5013875;28;20189;-46
2023/06/01 01:41:50;;;;;;;0.40;0.40;;;21.40;50.70;;;21.84;35.02;95149.72;5012273;28;20236;-49
2023/06/01 01:44:18;;;;;;;0.40;0.40;;;21.30;50.60;;;21.83;35.46;95145.44;5012467;28;20249;-47
2023/06/01 01:47:01;;;;;;;0.43;0.43;;;21.30;50.60;;;21.80;35.60;95145.97;5013333;28;20189;-47
2023/06/01 01:49:42;;;;;;;0.40;0.40;;;21.30;50.60;;;21.77;35.56;95140.34;5012320;28;20196;-49
2023/06/01 01:52:27;;;;;;;0.40;0.40;;;21.30;50.70;;;21.74;35.12;95142.44;5012676;28;20185;-48
2023/06/01 01:54:55;;;;;;;0.40;0.40;;;21.30;50.80;;;21.73;35.20;95142.72;5013131;28;20665;-45
2023/06/01 01:57:24;;;;;;;0.35;0.35;;;21.30;50.80;;;21.70;35.49;95133.34;4995817;28;20322;-45
2023/06/01 01:59:53;;;;;;;0.30;0.30;;;21.20;50.70;;;21.70;35.76;95136.03;4996003;28;20301;-45
2023/06/01 02:02:22;;;;;;;0.40;0.40;;;21.20;52.00;;;21.68;35.31;95132.81;4996070;28;20217;-45
2023/06/01 02:04:49;;;;;;;0.40;0.40;;;21.20;50.80;;;21.67;35.33;95135.72;5013237;28;20224;-45
2023/06/01 02:07:16;;;;;;;0.50;0.50;;;21.20;51.00;;;21.65;35.38;95135.97;5011860;28;20201;-45
2023/06/01 02:09:43;;;;;;;0.40;0.40;;;21.10;50.80;;;21.64;35.69;95125.56;5011942;28;20207;-46
2023/06/01 02:12:12;;;;;;;0.40;0.40;;;21.10;50.90;;;21.61;35.57;95121.53;5011953;28;20537;-45
2023/06/01 02:14:39;;;;;;;0.40;0.40;;;21.10;50.90;;;21.59;35.53;95121.81;5011868;28;20209;-45
2023/06/01 02:17:07;;;;;;;0.45;0.45;;;21.10;51.00;;;21.59;35.56;95120.97;5011503;28;20658;-45
2023/06/01 02:19:34;;;;;;;0.40;0.40;;;21.10;51.00;;;21.57;35.92;95113.22;5012998;28;20213;-45
2023/06/01 02:22:01;;;;;;;0.40;0.40;;;21.10;51.10;;;21.56;35.43;95119.63;5011712;28;20216;-46
2023/06/01 02:24:29;;;;;;;0.30;0.30;;;21.10;51.00;;;21.55;35.65;95109.19;5011736;28;20243;-45
2023/06/01 02:26:56;;;;;;;0.50;0.50;;;21.00;51.00;;;21.53;35.80;95114.78;5011531;28;20659;-45
2023/06/01 02:29:23;;;;;;;0.40;0.40;;;21.00;51.00;;;21.51;35.88;95116.09;5012857;28;20198;-46
2023/06/01 02:31:52;;;;;;;0.43;0.43;;;21.00;51.10;;;21.51;35.69;95108.91;5011498;28;20249;-45
2023/06/01 02:34:20;;;;;;;0.40;0.40;;;21.00;51.00;;;21.49;35.58;95113.69;5011610;28;20307;-45
2023/06/01 02:36:48;;;;;;;0.47;0.47;;;21.00;51.00;;;21.48;35.65;95111.28;5011548;28;20197;-45
2023/06/01 02:39:16;;;;;;;0.40;0.40;;;21.00;51.10;;;21.46;35.52;95110.72;5011544;28;20218;-45
2023/06/01 02:41:44;;;;;;;0.40;0.40;;;21.00;51.10;;;21.43;36.31;95106.69;5011445;28;20685;-45
2023/06/01 02:44:11;;;;;;;0.50;0.50;;;21.00;51.20;;;21.43;35.77;95115.53;4995366;28;20222;-45
2023/06/01 02:46:38;;;;;;;0.38;0.38;;;21.00;51.30;;;21.40;36.08;95108.00;5012227;28;20266;-45
2023/06/01 02:49:06;;;;;;;0.50;0.50;;;20.90;51.20;;;21.38;36.25;95102.13;5011399;28;20203;-45
2023/06/01 02:51:33;;;;;;;0.60;0.60;;;20.90;51.20;;;21.38;35.70;95104.78;5012340;28;20235;-48
2023/06/01 02:54:11;;;;;;;0.40;0.40;;;20.90;51.30;;;21.36;35.74;95112.25;5012247;28;20234;-45
2023/06/01 02:56:38;;;;;;;0.40;0.40;;;20.90;51.30;;;21.34;36.32;95109.03;5097370;28;20217;-45
2023/06/01 02:59:20;;;;;;;0.30;0.30;;;20.90;51.40;;;21.32;36.11;95100.47;5012227;28;20197;-46
2023/06/01 03:01:53;;;;;;;0.40;0.40;;;20.90;51.40;;;21.31;35.87;95098.06;5011478;28;20289;-46
2023/06/01 03:04:20;;;;;;;0.40;0.40;;;20.90;51.40;;;21.30;35.79;95102.59;5011219;28;20196;-47
2023/06/01 03:06:49;;;;;;;0.40;0.40;;;20.80;51.40;;;21.28;36.34;95099.38;5011205;28;20205;-45
2023/06/01 03:09:21;;;;;;;0.40;0.40;;;20.80;51.40;;;21.26;35.93;95104.97;5012441;28;20190;-45
2023/06/01 03:12:03;;;;;;;0.40;0.40;;;20.80;51.50;;;21.25;35.98;95105.22;5011441;28;20213;-49
2023/06/01 03:14:31;;;;;;;0.50;0.50;;;20.80;51.50;;;21.23;36.13;95104.69;5011100;28;20201;-46
2023/06/01 03:16:59;;;;;;;0.40;0.40;;;20.80;51.60;;;21.22;36.64;95109.19;5010911;28;20210;-47
2023/06/01 03:19:26;;;;;;;0.30;0.30;;;20.80;51.60;;;21.20;36.37;95107.84;5012505;28;20235;-46
2023/06/01 03:21:55;;;;;;;0.40;0.40;;;20.80;51.70;;;21.18;36.30;95102.78;5010957;28;20216;-45
2023/06/01 03:24:25;;;;;;;0.40;0.40;;;20.80;51.80;;;21.16;36.29;95102.22;5010976;28;20204;-47
2023/06/01 03:26:53;;;;;;;0.47;0.47;;;20.80;51.90;;;21.15;36.27;95105.94;5010960;28;20197;-50
2023/06/01 03:29:21;;;;;;;0.40;0.40;;;20.70;51.80;;;21.12;36.67;95106.47;4998184;28;20210;-49
2023/06/01 03:31:49;;;;;;;0.40;0.40;;;20.70;51.90;;;21.11;36.53;95110.97;5014339;28;20280;-47
2023/06/01 03:34:20;;;;;;;0.40;0.40;;;20.70;52.00;;;21.10;36.79;95111.22;4998667;28;20230;-48
2023/06/01 03:36:47;;;;;;;0.50;0.50;;;20.70;52.00;;;21.09;36.89;95112.28;5014311;28;20251;-50
2023/06/01 03:39:16;;;;;;;0.40;0.40;;;20.70;52.00;;;21.05;36.70;95106.66;5015287;28;20204;-48
2023/06/01 03:41:44;;;;;;;0.40;0.40;;;20.70;52.10;;;21.05;36.91;95111.97;5014162;28;20223;-48
2023/06/01 03:44:12;;;;;;;0.50;0.50;;;20.70;52.20;;;21.02;36.71;95109.84;5014172;28;20769;-45
2023/06/01 03:46:41;;;;;;;0.40;0.40;;;20.70;52.20;;;20.99;37.17;95107.66;5014115;28;20550;-45
2023/06/01 03:49:08;;;;;;;0.43;0.43;;;20.70;52.40;;;20.98;36.82;95105.25;5014905;28;20280;-45
2023/06/01 03:51:36;;;;;;;0.60;0.60;;;20.70;52.40;;;20.95;37.24;95110.03;5014626;28;20269;-45
2023/06/01 03:54:03;;;;;;;0.40;0.40;;;20.60;52.50;;;20.94;37.08;95111.09;5014058;28;20234;-45
2023/06/01 03:56:31;;;;;;;0.40;0.40;;;20.70;52.60;;;20.92;37.06;95107.06;5013996;28;20199;-45
2023/06/01 03:59:01;;;;;;;0.40;0.40;;;20.60;52.60;;;20.90;37.59;95107.31;5013896;28;20205;-45
2023/06/01 04:01:32;;;;;;;0.50;0.50;;;20.60;52.60;;;20.90;37.51;95111.84;5013826;28;20231;-45
2023/06/01 04:03:59;;;;;;;0.40;0.40;;;20.60;52.70;;;20.89;37.84;95110.25;5014470;28;20236;-45
2023/06/01 04:06:29;;;;;;;0.40;0.40;;;20.60;52.90;;;20.89;37.57;95107.59;5013832;28;20568;-45
2023/06/01 04:08:58;;;;;;;0.50;0.50;;;20.60;52.90;;;20.87;37.99;95109.69;5014829;28;20208;-45
2023/06/01 04:11:26;;;;;;;0.40;0.40;;;20.60;53.10;;;20.85;37.58;95104.63;5013767;28;20266;-45
2023/06/01 04:13:53;;;;;;;0.40;0.40;;;20.60;53.10;;;20.85;37.77;95109.94;5013717;28;20204;-45
2023/06/01 04:16:22;;;;;;;0.40;0.40;;;20.60;53.10;;;20.85;37.92;95109.13;5013951;28;20315;-46
2023/06/01 04:18:49;;;;;;;0.40;0.40;;;20.60;53.20;;;20.84;37.95;95105.66;5083088;28;20204;-44
2023/06/01 04:21:23;;;;;;;0.40;0.40;;;20.60;53.30;;;20.83;37.91;95111.25;5014813;28;20232;-45
2023/06/01 04:23:51;;;;;;;0.43;0.43;;;20.60;53.40;;;20.83;38.00;95105.94;5013595;28;20596;-45
2023/06/01 04:26:20;;;;;;;0.50;0.50;;;20.60;53.40;;;20.81;38.22;95108.81;5015528;28;20290;-47
2023/06/01 04:28:48;;;;;;;0.40;0.40;;;20.60;53.50;;;20.82;37.91;95109.66;5014562;28;20204;-45
2023/06/01 04:31:19;;;;;;;0.60;0.60;;;20.60;53.50;;;20.81;38.16;95108.03;4997385;28;20229;-47
2023/06/01 04:33:53;;;;;;;0.50;0.50;;;20.50;53.50;;;20.79;38.40;95100.28;5013486;28;20199;-45
2023/06/01 04:36:28;;;;;;;0.40;0.40;;;20.60;53.60;;;20.78;38.10;95106.66;5014867;28;20184;-45
2023/06/01 04:38:58;;;;;;;0.40;0.40;;;20.60;53.70;;;20.79;38.42;95105.63;4997449;28;20493;-45
2023/06/01 04:41:26;;;;;;;0.40;0.40;;;20.50;53.70;;;20.80;38.24;95099.25;5013404;28;20267;-48
2023/06/01 04:43:53;;;;;;;0.38;0.38;;;20.50;53.80;;;20.81;38.28;95103.50;5013326;28;20690;-45
2023/06/01 04:46:25;;;;;;;0.45;0.45;;;20.60;53.90;;;20.82;38.26;95096.31;5013296;28;20197;-45
2023/06/01 04:48:57;;;;;;;0.50;0.50;;;20.60;54.10;;;20.81;38.76;95095.50;5013117;28;20210;-47
2023/06/01 04:51:24;;;;;;;0.45;0.45;;;20.60;54.10;;;20.82;38.47;95097.09;5013394;28;20200;-45
2023/06/01 04:53:53;;;;;;;0.30;0.30;;;20.50;54.00;;;20.83;38.91;95089.94;5014040;28;20287;-46
2023/06/01 04:56:29;;;;;;;0.40;0.40;;;20.60;54.40;;;20.84;38.60;95089.66;5013198;28;20187;-45
2023/06/01 04:58:57;;;;;;;0.50;0.50;;;20.60;54.40;;;20.84;39.22;95086.22;5012982;28;20203;-46
2023/06/01 05:01:29;;;;;;;0.50;0.50;;;20.60;54.50;;;20.87;38.85;95088.34;5013277;28;20200;-46
2023/06/01 05:03:57;;;;;;;0.40;0.40;;;20.60;54.60;;;20.87;38.91;95085.69;5012986;28;20300;-47
2023/06/01 05:06:26;;;;;;;0.40;0.40;;;20.60;54.60;;;20.89;39.31;95091.59;5012943;28;20515;-45
2023/06/01 05:08:53;;;;;;;0.47;0.47;;;20.60;54.80;;;20.89;39.04;95084.38;5013144;28;20207;-45
2023/06/01 05:11:21;;;;;;;0.70;0.70;;;20.60;54.90;;;20.91;39.25;95084.13;5012869;28;20670;-45
2023/06/01 05:13:51;;;;;;;0.40;0.40;;;20.70;55.10;;;20.92;39.15;95093.72;5012786;28;20624;-48
2023/06/01 05:16:18;;;;;;;0.40;0.40;;;20.70;55.30;;;20.92;39.55;95091.06;5012820;28;20199;-47
2023/06/01 05:18:46;;;;;;;0.40;0.40;;;20.70;55.40;;;20.93;39.86;95090.00;5012567;28;20261;-47
2023/06/01 05:21:14;;;;;;;0.43;0.43;;;20.70;55.60;;;20.93;40.05;95085.50;5013026;28;20235;-46
2023/06/01 05:23:41;;;;;;;0.35;0.35;;;20.70;55.60;;;20.95;40.22;95093.25;5013647;28;20199;-49
2023/06/01 05:26:08;;;;;;;0.40;0.40;;;20.70;55.70;;;20.97;39.79;95083.13;5012625;28;20218;-48
2023/06/01 05:28:36;;;;;;;0.40;0.40;;;20.80;55.90;;;20.98;40.17;95083.94;5012430;28;20265;-46
2023/06/01 05:31:06;;;;;;;0.40;0.40;;;20.80;55.90;;;20.99;40.31;95082.88;5012727;28;20570;-47
2023/06/01 05:33:39;;;;;;;0.40;0.40;;;20.80;56.00;;;21.01;40.46;95078.88;5013731;28;20208;-48
2023/06/01 05:36:07;;;;;;;0.40;0.40;;;20.80;55.90;;;21.03;40.11;95083.97;5013433;28;20223;-45
2023/06/01 05:38:34;;;;;;;0.40;0.40;;;20.80;56.00;;;21.07;40.57;95083.22;5012288;28;20205;-45
2023/06/01 05:41:01;;;;;;;0.40;0.40;;;20.80;56.00;;;21.08;40.16;95090.16;5013241;28;20208;-45
2023/06/01 05:43:29;;;;;;;0.50;0.50;;;20.90;56.00;;;21.08;40.14;95087.50;5012287;28;20231;-45
2023/06/01 05:45:59;;;;;;;0.40;0.40;;;20.90;56.20;;;21.10;40.26;95082.72;5013252;28;20189;-45
2023/06/01 05:48:27;;;;;;;0.40;0.40;;;20.90;56.10;;;21.13;40.62;95085.91;5012144;28;20205;-45
2023/06/01 05:50:54;;;;;;;0.45;0.45;;;21.00;56.20;;;21.17;40.72;95076.34;5012062;28;20236;-45
2023/06/01 05:53:24;;;;;;;0.40;0.40;;;20.90;56.10;;;21.19;40.50;95075.03;5012248;28;20200;-45
2023/06/01 05:55:51;;;;;;;0.40;0.40;;;21.00;56.30;;;21.21;40.71;95077.44;5012171;28;20206;-45
2023/06/01 05:58:19;;;;;;;0.40;0.40;;;21.00;56.30;;;21.24;40.65;95091.09;5011989;28;20598;-46
2023/06/01 06:00:47;;;;;;;0.40;0.40;;;21.00;56.30;;;21.26;40.44;95083.63;5012230;28;20211;-45
2023/06/01 06:03:15;;;;;;;0.40;0.40;;;21.10;56.50;;;21.29;40.71;95082.31;5012953;28;20681;-45
2023/06/01 06:05:42;;;;;;;0.40;0.40;;;21.10;56.50;;;21.33;40.95;95082.63;5012021;28;20597;-47
2023/06/01 06:08:10;;;;;;;0.40;0.40;;;21.10;56.50;;;21.36;40.37;95084.75;5011909;28;20195;-45
2023/06/01 06:10:37;;;;;;;0.43;0.43;;;21.10;56.40;;;21.38;41.06;95086.09;5012928;28;20194;-45
2023/06/01 06:13:04;;;;;;;0.40;0.40;;;21.20;57.80;;;21.41;40.99;95087.47;5012866;28;20197;-46
2023/06/01 06:15:31;;;;;;;0.40;0.40;;;21.20;56.60;;;21.43;40.69;95091.50;5013178;28;20202;-47
2023/06/01 06:17:58;;;;;;;0.30;0.30;;;21.20;56.60;;;21.46;40.69;95084.03;5011971;28;20289;-45
2023/06/01 06:20:25;;;;;;;0.40;0.40;;;21.30;56.60;;;21.46;40.50;95084.84;5012639;28;20636;-45
2023/06/01 06:22:53;;;;;;;0.35;0.35;;;21.30;56.70;;;21.49;40.70;95083.53;5012654;28;20739;-45
2023/06/01 06:25:20;;;;;;;0.30;0.30;;;21.30;56.70;;;21.51;40.72;95078.75;5012735;28;20688;-45
2023/06/01 06:27:48;;;;;;;0.40;0.40;;;21.30;56.70;;;21.51;40.76;95076.88;5012679;28;20194;-45
2023/06/01 06:30:15;;;;;;;0.47;0.47;;;21.30;56.70;;;21.53;41.01;95080.09;5012392;28;20714;-45
2023/06/01 06:32:42;;;;;;;0.30;0.30;;;21.40;56.80;;;21.55;40.61;95087.84;5012578;28;20606;-45
2023/06/01 06:35:12;;;;;;;0.40;0.40;;;21.40;56.80;;;21.57;41.15;95083.09;5012594;28;20206;-45
2023/06/01 06:37:41;;;;;;;0.30;0.30;;;21.40;56.80;;;21.59;40.74;95086.28;5012586;28;20190;-45
2023/06/01 06:40:09;;;;;;;0.38;0.38;;;21.40;56.80;;;21.62;40.68;95082.28;5012266;28;20188;-48
2023/06/01 06:42:36;;;;;;;0.40;0.40;;;21.40;56.70;;;21.63;41.22;95083.91;5012399;28;20251;-45
2023/06/01 06:45:05;;;;;;;0.40;0.40;;;21.40;56.80;;;21.65;41.22;95085.25;5012390;28;20201;-46
2023/06/01 06:47:32;;;;;;;0.30;0.30;;;21.50;56.80;;;21.67;41.21;95085.81;5012398;28;20193;-45
2023/06/01 06:49:59;;;;;;;0.30;0.30;;;21.50;56.80;;;21.70;41.01;95082.63;5011424;28;20213;-46
2023/06/01 06:52:27;;;;;;;0.40;0.40;;;21.50;56.80;;;21.73;40.65;95086.66;5012286;28;20209;-46
2023/06/01 06:54:54;;;;;;;0.40;0.40;;;21.50;56.70;;;21.75;40.86;95090.66;5012630;28;20197;-51
2023/06/01 06:57:21;;;;;;;0.40;0.40;;;21.50;56.80;;;21.78;40.95;95092.00;5012301;28;20203;-46
2023/06/01 06:59:48;;;;;;;0.40;0.40;;;21.50;56.80;;;21.81;41.24;95091.47;5012182;28;20208;-47
2023/06/01 07:02:15;;;;;;;0.50;0.50;;;21.60;56.90;;;21.83;41.07;95094.72;5012504;28;20787;-49
2023/06/01 07:04:42;;;;;;;0.32;0.32;;;21.60;56.80;;;21.87;40.79;95086.97;5015785;28;20648;-47
2023/06/01 07:07:09;;;;;;;0.30;0.30;;;21.70;57.00;;;21.89;40.66;95083.00;5015987;28;20638;-51
2023/06/01 07:09:37;;;;;;;0.38;0.38;;;21.70;56.80;;;21.94;41.05;95084.88;5015540;28;20196;-51
2023/06/01 07:12:05;;;;;;;0.40;0.40;;;21.70;56.80;;;21.96;40.99;95087.28;5015691;28;20189;-51
2023/06/01 07:14:33;;;;;;;0.30;0.30;;;21.70;56.70;;;21.99;40.72;95081.44;5015861;28;20283;-51
2023/06/01 07:17:00;;;;;;;0.40;0.40;;;21.70;56.50;;;22.01;40.39;95080.13;5015827;28;20185;-51
2023/06/01 07:19:32;;;;;;;0.43;0.43;;;21.80;56.50;;;22.03;40.34;95082.53;5015605;28;20238;-52
2023/06/01 07:22:00;;;;;;;0.40;0.40;;;21.80;56.50;;;22.05;40.67;95086.53;5015778;28;20301;-49
2023/06/01 07:24:28;;;;;;;0.47;0.47;;;21.80;56.30;;;22.07;40.02;95080.97;5016085;28;20197;-47
2023/06/01 07:26:57;;;;;;;0.35;0.35;;;21.80;56.30;;;22.11;40.69;95086.59;5015375;28;20199;-46
2023/06/01 07:29:24;;;;;;;0.40;0.40;;;21.90;56.30;;;22.14;40.74;95086.03;5014304;28;20207;-46
2023/06/01 07:31:52;;;;;;;0.30;0.30;;;21.90;57.50;;;22.15;40.40;95076.97;5015294;28;20263;-47
2023/06/01 07:34:20;;;;;;;0.30;0.30;;;21.90;56.00;;;22.19;40.31;95083.38;5015343;28;20186;-46
2023/06/01 07:36:48;;;;;;;0.47;0.47;;;21.90;56.00;;;22.21;40.27;95084.72;5015298;28;20616;-46
2023/06/01 07:39:16;;;;;;;0.32;0.32;;;22.00;56.10;;;22.22;40.10;95083.66;5015096;28;20249;-47
2023/06/01 07:41:46;;;;;;;0.40;0.40;;;22.00;56.00;;;22.27;39.95;95082.09;5015739;28;20186;-47
2023/06/01 07:44:18;;;;;;;0.32;0.32;;;22.00;55.90;;;22.29;40.05;95079.94;5015059;28;20212;-45
2023/06/01 07:46:46;;;;;;;0.30;0.30;;;22.00;55.70;;;22.33;40.02;95078.38;5030330;28;20185;-44
2023/06/01 07:49:14;;;;;;;0.38;0.38;;;22.10;55.70;;;22.36;39.59;95083.19;5014930;28;20288;-45
2023/06/01 07:51:43;;;;;;;0.47;0.47;;;22.10;55.60;;;22.37;39.55;95082.94;5015055;28;20657;-45
2023/06/01 07:54:10;;;;;;;0.30;0.30;;;22.10;55.50;;;22.41;39.63;95072.56;5015010;28;20704;-44
2023/06/01 07:56:37;;;;;;;0.30;0.30;;;22.20;55.80;;;22.43;39.91;95067.75;5014934;28;20247;-45
2023/06/01 07:59:04;;;;;;;0.30;0.30;;;22.20;55.50;;;22.45;39.55;95076.31;5014975;28;20710;-46
2023/06/01 08:01:32;;;;;;;0.40;0.40;;;22.20;55.40;;;22.49;39.37;95081.94;5014037;28;20545;-46
2023/06/01 08:04:01;;;;;;;0.40;0.40;;;22.20;55.40;;;22.52;39.71;95078.72;5014782;28;20240;-45
2023/06/01 08:06:28;;;;;;;0.30;0.30;;;22.20;55.20;;;22.54;39.26;95076.59;5014027;28;20268;-45
2023/06/01 08:08:55;;;;;;;0.30;0.30;;;22.30;55.20;;;22.58;39.26;95080.34;5014620;28;20193;-45
2023/06/01 08:11:23;;;;;;;0.35;0.35;;;22.30;55.20;;;22.61;39.59;95076.34;5014991;28;20237;-45
2023/06/01 08:13:50;;;;;;;0.40;0.40;;;22.30;55.00;;;22.63;39.41;95075.03;5013968;28;20284;-49
2023/06/01 08:16:17;;;;;;;0.30;0.30;;;22.30;54.90;;;22.66;38.79;95069.13;5015169;28;20262;-50
2023/06/01 08:18:44;;;;;;;0.25;0.25;;;22.40;54.80;;;22.70;39.00;95077.44;5013639;28;20204;-45
2023/06/01 08:21:12;;;;;;;0.30;0.30;;;22.40;54.80;;;22.73;39.01;95076.91;5014487;28;20695;-45
2023/06/01 08:23:40;;;;;;;0.45;0.45;;;22.50;54.70;;;22.75;39.09;95074.75;5013557;28;20285;-45
2023/06/01 08:26:07;;;;;;;0.30;0.30;;;22.50;54.60;;;22.79;38.74;95069.69;5014813;28;20250;-45
2023/06/01 08:28:35;;;;;;;0.35;0.35;;;22.50;54.50;;;22.81;38.58;95076.41;5014575;28;20226;-45
2023/06/01 08:31:02;;;;;;;0.30;0.30;;;22.50;54.20;;;22.83;38.37;95060.09;5013325;28;20629;-45
2023/06/01 08:33:30;;;;;;;0.35;0.35;;;22.60;54.20;;;22.86;38.42;95059.53;5014361;28;20193;-46
2023/06/01 08:35:57;;;;;;;0.30;0.30;;;22.60;54.10;;;22.90;38.14;95062.47;5015044;28;20277;-47
2023/06/01 08:38:28;;;;;;;0.30;0.30;;;22.60;53.90;;;22.91;38.32;95056.88;5014348;28;20189;-47
2023/06/01 08:40:56;;;;;;;0.30;0.30;;;22.60;53.80;;;22.95;37.81;95060.63;5014268;28;20250;-49
2023/06/01 08:43:27;;;;;;;0.40;0.40;;;22.70;53.90;;;22.97;38.25;95055.81;5013327;28;20214;-47
2023/06/01 08:45:57;;;;;;;0.30;0.30;;;22.70;53.70;;;23.00;38.05;95057.16;5013577;28;20177;-51
2023/06/01 08:48:25;;;;;;;0.30;0.30;;;22.70;53.60;;;23.05;37.85;95056.34;5014172;28;20288;-50
2023/06/01 08:50:53;;;;;;;0.40;0.40;;;22.70;53.50;;;23.07;37.95;95056.88;5013274;28;20193;-47
2023/06/01 08:53:21;;;;;;;0.40;0.40;;;22.70;53.40;;;23.11;37.53;95053.41;5013277;28;20633;-49
2023/06/01 08:55:53;;;;;;;0.30;0.30;;;22.80;53.40;;;23.14;37.48;95047.53;5014605;28;20698;-51
2023/06/01 08:58:20;;;;;;;0.30;0.30;;;22.80;53.20;;;23.17;37.75;95043.53;5014079;28;20231;-50
2023/06/01 09:00:53;;;;;;;0.32;0.32;;;22.80;53.30;;;23.20;37.78;95040.31;5014125;28;20245;-50
2023/06/01 09:03:21;;;;;;;0.40;0.40;;;22.90;53.20;;;23.23;37.56;95039.78;5013933;28;20217;-51
2023/06/01 09:05:48;;;;;;;0.30;0.30;;;22.90;53.30;;;23.26;37.59;95043.81;5013927;28;20198;-51
2023/06/01 09:08:15;;;;;;;0.30;0.30;;;22.90;53.20;;;23.27;37.36;95034.72;5012941;28;20712;-52
2023/06/01 09:10:43;;;;;;;0.30;0.30;;;22.90;53.00;;;23.29;37.18;95030.69;5013793;28;20650;-51
2023/06/01 09:13:10;;;;;;;0.30;0.30;;;22.90;52.90;;;23.32;37.42;95029.34;5013017;28;20292;-47
2023/06/01 09:15:52;;;;;;;0.35;0.35;;;23.00;53.20;;;23.33;37.06;95029.06;5014147;28;20195;-47
2023/06/01 09:18:19;;;;;;;0.40;0.40;;;23.00;53.10;;;23.35;37.49;95028.78;5014125;28;20222;-47
2023/06/01 09:20:46;;;;;;;0.30;0.30;;;23.10;53.20;;;23.38;37.19;95027.47;5013408;28;20194;-47
2023/06/01 09:23:26;;;;;;;0.30;0.30;;;23.00;52.90;;;23.40;37.33;95023.44;5013819;28;20245;-47
2023/06/01 09:26:08;;;;;;;0.38;0.38;;;23.10;52.90;;;23.43;37.14;95030.13;5013330;28;20181;-46
2023/06/01 09:28:58;;;;;;;0.45;0.45;;;23.10;52.80;;;23.43;37.10;95025.56;5015061;28;20280;-47
2023/06/01 09:31:35;;;;;;;0.20;0.20;;;23.10;52.80;;;23.47;36.90;95023.16;5014879;28;20236;-47
2023/06/01 09:34:04;;;;;;;0.30;0.30;;;23.20;52.70;;;23.49;36.82;95019.13;5015588;28;20616;-48
2023/06/01 09:36:32;;;;;;;0.30;0.30;;;23.20;52.70;;;23.54;36.77;95023.69;5014920;28;20201;-49
2023/06/01 09:39:04;;;;;;;0.30;0.30;;;23.20;52.70;;;23.56;37.01;95018.03;5014315;28;20200;-47
2023/06/01 09:42:06;;;;;;;0.30;0.30;;;23.20;52.30;;;23.57;36.74;95012.44;5015737;28;20193;-47
2023/06/01 09:44:41;;;;;;;0.38;0.38;;;23.20;52.50;;;23.61;36.68;95015.38;5036888;28;20245;-48
2023/06/01 09:47:15;;;;;;;0.30;0.30;;;23.30;52.60;;;23.63;37.09;95011.34;5015372;28;20191;-48
2023/06/01 09:49:44;;;;;;;0.30;0.30;;;23.30;52.70;;;23.67;36.86;95014.28;5014988;28;20252;-48
2023/06/01 09:52:16;;;;;;;0.30;0.30;;;23.30;52.60;;;23.69;36.61;95014.78;5015975;28;20223;-48
2023/06/01 09:54:49;;;;;;;0.30;0.30;;;23.40;52.50;;;23.73;36.63;95007.84;5014817;28;20256;-48
2023/06/01 09:57:25;;;;;;;0.40;0.40;;;23.40;52.10;;;23.76;36.17;95009.16;5015446;28;20206;-48
2023/06/01 09:59:52;;;;;;;0.30;0.30;;;23.40;52.10;;;23.79;36.36;94995.22;5014774;28;20259;-47
2023/06/01 10:02:22;;;;;;;0.35;0.35;;;23.40;52.10;;;23.82;36.23;95000.81;5013737;28;20237;-52
2023/06/01 10:05:00;;;;;;;0.50;0.50;;;23.40;52.00;;;23.85;36.21;95001.38;5014822;28;20230;-52
2023/06/01 10:07:33;;;;;;;0.30;0.30;;;23.50;52.00;;;23.87;36.36;94999.22;5015068;28;20554;-48
2023/06/01 10:10:03;;;;;;;0.30;0.30;;;23.50;52.00;;;23.90;36.19;95004.84;5014277;28;20208;-49
2023/06/01 10:12:31;;;;;;;0.35;0.35;;;23.50;52.10;;;23.92;36.20;94991.16;5014777;28;20594;-47
2023/06/01 10:15:03;;;;;;;0.40;0.40;;;23.50;52.00;;;23.94;36.48;94992.50;5013383;28;20192;-48
2023/06/01 10:17:49;;;;;;;0.30;0.30;;;23.60;52.10;;;23.96;36.32;94993.06;4998830;28;20194;-53
2023/06/01 10:20:18;;;;;;;0.30;0.30;;;23.60;52.10;;;23.98;36.17;94992.78;5013206;28;20202;-48
2023/06/01 10:22:45;;;;;;;0.30;0.30;;;23.60;52.10;;;24.01;36.36;94988.72;5012851;28;20281;-48
2023/06/01 10:25:16;;;;;;;0.30;0.30;;;23.60;52.00;;;24.02;36.67;94987.66;5012152;28;20247;-48
2023/06/01 10:27:54;;;;;;;0.30;0.30;;;23.70;52.20;;;24.04;36.26;94982.84;5012290;28;20216;-48
2023/06/01 10:30:21;;;;;;;0.30;0.30;;;23.70;52.10;;;24.05;36.27;94989.81;5012012;28;20235;-53